sensor_id;sensor_type;location;lat;lon;timestamp;P1;durP1;ratioP1;P2;durP2;ratioP2
25349;SDS011;13302;48.796;11.978;2024-01-06T00:02:07;7.43;;;6.47;;
25349;SDS011;13302;48.796;11.978;2024-01-06T00:04:54;6.43;;;5.93;;
25349;SDS011;13302;48.796;11.978;2024-01-06T00:07:41;6.90;;;6.30;;
25349;SDS011;13302;48.796;11.978;2024-01-06T00:10:28;6.07;;;5.57;;
25349;SDS011;13302;48.796;11.978;2024-01-06T00:13:16;6.53;;;5.93;;
25349;SDS011;13302;48.796;11.978;2024-01-06T00:16:03;6.63;;;6.07;;
25349;SDS011;13302;48.796;11.978;2024-01-06T00:18:50;6.90;;;6.20;;
25349;SDS011;13302;48.796;11.978;2024-01-06T00:21:37;6.60;;;5.87;;
25349;SDS011;13302;48.796;11.978;2024-01-06T00:24:24;6.43;;;5.93;;
25349;SDS011;13302;48.796;11.978;2024-01-06T00:27:11;6.73;;;6.13;;
25349;SDS011;13302;48.796;11.978;2024-01-06T00:30:00;5.87;;;5.40;;
25349;SDS011;13302;48.796;11.978;2024-01-06T00:32:48;5.80;;;5.30;;
25349;SDS011;13302;48.796;11.978;2024-01-06T00:35:35;6.67;;;5.97;;
25349;SDS011;13302;48.796;11.978;2024-01-06T00:38:22;6.33;;;5.77;;
25349;SDS011;13302;48.796;11.978;2024-01-06T00:41:09;7.47;;;6.87;;
25349;SDS011;13302;48.796;11.978;2024-01-06T00:43:56;7.73;;;7.03;;
25349;SDS011;13302;48.796;11.978;2024-01-06T00:46:43;6.43;;;5.90;;
25349;SDS011;13302;48.796;11.978;2024-01-06T00:49:30;7.20;;;6.60;;
25349;SDS011;13302;48.796;11.978;2024-01-06T00:52:17;6.50;;;6.00;;
25349;SDS011;13302;48.796;11.978;2024-01-06T00:55:04;6.23;;;5.63;;
25349;SDS011;13302;48.796;11.978;2024-01-06T00:57:51;7.17;;;6.50;;
25349;SDS011;13302;48.796;11.978;2024-01-06T01:00:38;7.17;;;5.80;;
25349;SDS011;13302;48.796;11.978;2024-01-06T01:03:27;7.00;;;6.27;;
25349;SDS011;13302;48.796;11.978;2024-01-06T01:06:14;6.33;;;5.80;;
25349;SDS011;13302;48.796;11.978;2024-01-06T01:09:01;6.40;;;5.90;;
25349;SDS011;13302;48.796;11.978;2024-01-06T01:11:48;6.17;;;5.67;;
25349;SDS011;13302;48.796;11.978;2024-01-06T01:14:35;6.60;;;6.10;;
25349;SDS011;13302;48.796;11.978;2024-01-06T01:17:22;6.20;;;5.60;;
25349;SDS011;13302;48.796;11.978;2024-01-06T01:20:09;6.90;;;6.30;;
25349;SDS011;13302;48.796;11.978;2024-01-06T01:22:56;6.57;;;5.93;;
25349;SDS011;13302;48.796;11.978;2024-01-06T01:25:43;6.17;;;5.57;;
25349;SDS011;13302;48.796;11.978;2024-01-06T01:28:30;6.13;;;5.63;;
25349;SDS011;13302;48.796;11.978;2024-01-06T01:31:18;5.70;;;5.20;;
25349;SDS011;13302;48.796;11.978;2024-01-06T01:34:05;5.77;;;5.27;;
25349;SDS011;13302;48.796;11.978;2024-01-06T01:36:52;4.90;;;4.50;;
25349;SDS011;13302;48.796;11.978;2024-01-06T01:39:39;4.50;;;4.13;;
25349;SDS011;13302;48.796;11.978;2024-01-06T01:42:26;4.43;;;4.07;;
25349;SDS011;13302;48.796;11.978;2024-01-06T01:45:13;4.60;;;4.30;;
25349;SDS011;13302;48.796;11.978;2024-01-06T01:48:00;4.80;;;4.40;;
25349;SDS011;13302;48.796;11.978;2024-01-06T01:50:48;5.37;;;4.90;;
25349;SDS011;13302;48.796;11.978;2024-01-06T01:53:35;4.90;;;4.50;;
25349;SDS011;13302;48.796;11.978;2024-01-06T01:56:23;4.80;;;4.40;;
25349;SDS011;13302;48.796;11.978;2024-01-06T01:59:12;4.47;;;4.07;;
25349;SDS011;13302;48.796;11.978;2024-01-06T02:02:00;4.67;;;4.37;;
25349;SDS011;13302;48.796;11.978;2024-01-06T02:04:48;5.37;;;4.97;;
25349;SDS011;13302;48.796;11.978;2024-01-06T02:07:35;5.67;;;5.17;;
25349;SDS011;13302;48.796;11.978;2024-01-06T02:10:23;5.67;;;5.07;;
25349;SDS011;13302;48.796;11.978;2024-01-06T02:13:10;5.27;;;4.93;;
25349;SDS011;13302;48.796;11.978;2024-01-06T02:15:58;5.63;;;5.23;;
25349;SDS011;13302;48.796;11.978;2024-01-06T02:18:45;6.00;;;5.50;;
25349;SDS011;13302;48.796;11.978;2024-01-06T02:21:33;6.20;;;5.70;;
25349;SDS011;13302;48.796;11.978;2024-01-06T02:24:22;6.10;;;5.60;;
25349;SDS011;13302;48.796;11.978;2024-01-06T02:27:09;6.87;;;6.03;;
25349;SDS011;13302;48.796;11.978;2024-01-06T02:29:56;6.90;;;6.30;;
25349;SDS011;13302;48.796;11.978;2024-01-06T02:32:43;7.03;;;6.50;;
25349;SDS011;13302;48.796;11.978;2024-01-06T02:35:31;6.73;;;6.10;;
25349;SDS011;13302;48.796;11.978;2024-01-06T02:38:18;6.53;;;6.03;;
25349;SDS011;13302;48.796;11.978;2024-01-06T02:41:05;7.50;;;6.80;;
25349;SDS011;13302;48.796;11.978;2024-01-06T02:43:54;7.03;;;6.37;;
25349;SDS011;13302;48.796;11.978;2024-01-06T02:46:43;8.67;;;7.87;;
25349;SDS011;13302;48.796;11.978;2024-01-06T02:49:30;8.07;;;6.83;;
25349;SDS011;13302;48.796;11.978;2024-01-06T02:52:17;7.27;;;6.57;;
25349;SDS011;13302;48.796;11.978;2024-01-06T02:55:04;6.93;;;6.33;;
25349;SDS011;13302;48.796;11.978;2024-01-06T02:57:51;7.33;;;6.73;;
25349;SDS011;13302;48.796;11.978;2024-01-06T03:00:38;6.33;;;5.83;;
25349;SDS011;13302;48.796;11.978;2024-01-06T03:03:26;6.63;;;6.03;;
25349;SDS011;13302;48.796;11.978;2024-01-06T03:06:13;7.53;;;6.77;;
25349;SDS011;13302;48.796;11.978;2024-01-06T03:09:00;6.93;;;6.33;;
25349;SDS011;13302;48.796;11.978;2024-01-06T03:11:47;7.67;;;6.97;;
25349;SDS011;13302;48.796;11.978;2024-01-06T03:14:34;7.77;;;7.17;;
25349;SDS011;13302;48.796;11.978;2024-01-06T03:17:22;7.13;;;6.53;;
25349;SDS011;13302;48.796;11.978;2024-01-06T03:20:09;6.90;;;6.40;;
25349;SDS011;13302;48.796;11.978;2024-01-06T03:22:56;6.53;;;5.93;;
25349;SDS011;13302;48.796;11.978;2024-01-06T03:25:43;6.40;;;5.90;;
25349;SDS011;13302;48.796;11.978;2024-01-06T03:28:30;6.53;;;5.93;;
25349;SDS011;13302;48.796;11.978;2024-01-06T03:31:17;6.87;;;6.37;;
25349;SDS011;13302;48.796;11.978;2024-01-06T03:34:04;6.60;;;6.10;;
25349;SDS011;13302;48.796;11.978;2024-01-06T03:36:51;7.67;;;7.00;;
25349;SDS011;13302;48.796;11.978;2024-01-06T03:39:39;7.60;;;6.90;;
25349;SDS011;13302;48.796;11.978;2024-01-06T03:42:26;7.37;;;6.67;;
25349;SDS011;13302;48.796;11.978;2024-01-06T03:45:13;7.07;;;6.53;;
25349;SDS011;13302;48.796;11.978;2024-01-06T03:48:00;6.60;;;6.10;;
25349;SDS011;13302;48.796;11.978;2024-01-06T03:50:47;7.23;;;6.63;;
25349;SDS011;13302;48.796;11.978;2024-01-06T03:53:34;7.43;;;6.83;;
25349;SDS011;13302;48.796;11.978;2024-01-06T03:56:21;6.43;;;5.90;;
25349;SDS011;13302;48.796;11.978;2024-01-06T03:59:09;7.90;;;7.30;;
25349;SDS011;13302;48.796;11.978;2024-01-06T04:01:56;7.33;;;6.73;;
25349;SDS011;13302;48.796;11.978;2024-01-06T04:04:43;6.60;;;6.03;;
25349;SDS011;13302;48.796;11.978;2024-01-06T04:07:30;7.13;;;6.53;;
25349;SDS011;13302;48.796;11.978;2024-01-06T04:10:17;7.00;;;6.40;;
25349;SDS011;13302;48.796;11.978;2024-01-06T04:13:04;6.73;;;6.13;;
25349;SDS011;13302;48.796;11.978;2024-01-06T04:15:51;6.80;;;6.30;;
25349;SDS011;13302;48.796;11.978;2024-01-06T04:18:38;6.50;;;6.00;;
25349;SDS011;13302;48.796;11.978;2024-01-06T04:21:25;6.67;;;6.17;;
25349;SDS011;13302;48.796;11.978;2024-01-06T04:24:12;6.80;;;6.30;;
25349;SDS011;13302;48.796;11.978;2024-01-06T04:26:59;6.87;;;6.27;;
25349;SDS011;13302;48.796;11.978;2024-01-06T04:29:47;7.73;;;7.03;;
25349;SDS011;13302;48.796;11.978;2024-01-06T04:32:34;6.87;;;6.37;;
25349;SDS011;13302;48.796;11.978;2024-01-06T04:35:21;7.03;;;6.47;;
25349;SDS011;13302;48.796;11.978;2024-01-06T04:38:08;7.00;;;6.50;;
25349;SDS011;13302;48.796;11.978;2024-01-06T04:40:55;7.27;;;6.73;;
25349;SDS011;13302;48.796;11.978;2024-01-06T04:43:43;6.57;;;6.07;;
25349;SDS011;13302;48.796;11.978;2024-01-06T04:46:30;7.23;;;6.63;;
25349;SDS011;13302;48.796;11.978;2024-01-06T04:49:17;7.03;;;6.53;;
25349;SDS011;13302;48.796;11.978;2024-01-06T04:52:04;7.73;;;7.10;;
25349;SDS011;13302;48.796;11.978;2024-01-06T04:54:51;7.27;;;6.67;;
25349;SDS011;13302;48.796;11.978;2024-01-06T04:57:39;6.43;;;5.83;;
25349;SDS011;13302;48.796;11.978;2024-01-06T05:00:26;6.33;;;5.73;;
25349;SDS011;13302;48.796;11.978;2024-01-06T05:03:13;5.77;;;5.37;;
25349;SDS011;13302;48.796;11.978;2024-01-06T05:06:00;6.83;;;6.23;;
25349;SDS011;13302;48.796;11.978;2024-01-06T05:08:47;6.60;;;6.10;;
25349;SDS011;13302;48.796;11.978;2024-01-06T05:11:35;6.47;;;5.97;;
25349;SDS011;13302;48.796;11.978;2024-01-06T05:14:22;6.10;;;5.60;;
25349;SDS011;13302;48.796;11.978;2024-01-06T05:17:09;5.30;;;4.90;;
25349;SDS011;13302;48.796;11.978;2024-01-06T05:19:56;5.67;;;5.27;;
25349;SDS011;13302;48.796;11.978;2024-01-06T05:22:43;6.30;;;5.80;;
25349;SDS011;13302;48.796;11.978;2024-01-06T05:25:30;4.87;;;4.50;;
25349;SDS011;13302;48.796;11.978;2024-01-06T05:28:17;4.93;;;4.57;;
25349;SDS011;13302;48.796;11.978;2024-01-06T05:31:04;4.10;;;3.80;;
25349;SDS011;13302;48.796;11.978;2024-01-06T05:33:52;4.43;;;4.10;;
25349;SDS011;13302;48.796;11.978;2024-01-06T05:36:39;4.50;;;4.10;;
25349;SDS011;13302;48.796;11.978;2024-01-06T05:39:26;4.60;;;4.30;;
25349;SDS011;13302;48.796;11.978;2024-01-06T05:42:13;4.97;;;4.53;;
25349;SDS011;13302;48.796;11.978;2024-01-06T05:45:02;5.00;;;4.50;;
25349;SDS011;13302;48.796;11.978;2024-01-06T05:47:49;4.97;;;4.60;;
25349;SDS011;13302;48.796;11.978;2024-01-06T05:50:39;4.77;;;4.37;;
25349;SDS011;13302;48.796;11.978;2024-01-06T05:53:27;6.37;;;5.87;;
25349;SDS011;13302;48.796;11.978;2024-01-06T05:56:24;5.73;;;5.27;;
25349;SDS011;13302;48.796;11.978;2024-01-06T05:59:12;5.73;;;5.13;;
25349;SDS011;13302;48.796;11.978;2024-01-06T06:01:59;5.47;;;5.03;;
25349;SDS011;13302;48.796;11.978;2024-01-06T06:04:47;5.17;;;4.77;;
25349;SDS011;13302;48.796;11.978;2024-01-06T06:07:34;5.50;;;5.00;;
25349;SDS011;13302;48.796;11.978;2024-01-06T06:10:25;5.47;;;5.00;;
25349;SDS011;13302;48.796;11.978;2024-01-06T06:13:27;5.50;;;4.60;;
25349;SDS011;13302;48.796;11.978;2024-01-06T06:16:15;5.07;;;4.67;;
25349;SDS011;13302;48.796;11.978;2024-01-06T06:19:02;4.93;;;4.53;;
25349;SDS011;13302;48.796;11.978;2024-01-06T06:21:50;5.87;;;4.93;;
25349;SDS011;13302;48.796;11.978;2024-01-06T06:24:37;4.63;;;4.23;;
25349;SDS011;13302;48.796;11.978;2024-01-06T06:27:24;6.03;;;4.37;;
25349;SDS011;13302;48.796;11.978;2024-01-06T06:30:13;5.17;;;4.67;;
25349;SDS011;13302;48.796;11.978;2024-01-06T06:33:00;4.73;;;3.80;;
25349;SDS011;13302;48.796;11.978;2024-01-06T06:35:47;3.87;;;3.67;;
25349;SDS011;13302;48.796;11.978;2024-01-06T06:38:34;3.47;;;3.27;;
25349;SDS011;13302;48.796;11.978;2024-01-06T06:41:21;3.63;;;3.40;;
25349;SDS011;13302;48.796;11.978;2024-01-06T06:44:08;4.40;;;4.00;;
25349;SDS011;13302;48.796;11.978;2024-01-06T06:46:57;3.87;;;3.60;;
25349;SDS011;13302;48.796;11.978;2024-01-06T06:49:44;3.87;;;3.67;;
25349;SDS011;13302;48.796;11.978;2024-01-06T06:52:31;5.07;;;4.53;;
25349;SDS011;13302;48.796;11.978;2024-01-06T06:55:18;5.47;;;4.30;;
25349;SDS011;13302;48.796;11.978;2024-01-06T06:58:06;5.27;;;4.63;;
25349;SDS011;13302;48.796;11.978;2024-01-06T07:00:53;4.63;;;4.10;;
25349;SDS011;13302;48.796;11.978;2024-01-06T07:03:41;3.90;;;3.63;;
25349;SDS011;13302;48.796;11.978;2024-01-06T07:06:29;4.67;;;4.27;;
25349;SDS011;13302;48.796;11.978;2024-01-06T07:09:16;4.00;;;3.70;;
25349;SDS011;13302;48.796;11.978;2024-01-06T07:12:06;4.07;;;3.67;;
25349;SDS011;13302;48.796;11.978;2024-01-06T07:14:54;4.30;;;4.00;;
25349;SDS011;13302;48.796;11.978;2024-01-06T07:17:41;3.73;;;3.50;;
25349;SDS011;13302;48.796;11.978;2024-01-06T07:20:28;4.80;;;3.80;;
25349;SDS011;13302;48.796;11.978;2024-01-06T07:23:16;3.90;;;3.47;;
25349;SDS011;13302;48.796;11.978;2024-01-06T07:26:03;3.53;;;3.30;;
25349;SDS011;13302;48.796;11.978;2024-01-06T07:28:50;3.33;;;3.13;;
25349;SDS011;13302;48.796;11.978;2024-01-06T07:31:37;4.10;;;3.70;;
25349;SDS011;13302;48.796;11.978;2024-01-06T07:34:24;3.40;;;3.10;;
25349;SDS011;13302;48.796;11.978;2024-01-06T07:37:12;3.47;;;3.20;;
25349;SDS011;13302;48.796;11.978;2024-01-06T07:39:59;4.00;;;3.50;;
25349;SDS011;13302;48.796;11.978;2024-01-06T07:42:46;3.50;;;3.10;;
25349;SDS011;13302;48.796;11.978;2024-01-06T07:45:33;3.73;;;3.03;;
25349;SDS011;13302;48.796;11.978;2024-01-06T07:48:20;3.20;;;2.93;;
25349;SDS011;13302;48.796;11.978;2024-01-06T07:51:08;2.70;;;2.50;;
25349;SDS011;13302;48.796;11.978;2024-01-06T07:53:55;3.70;;;3.40;;
25349;SDS011;13302;48.796;11.978;2024-01-06T07:56:42;3.40;;;3.10;;
25349;SDS011;13302;48.796;11.978;2024-01-06T07:59:30;3.00;;;2.80;;
25349;SDS011;13302;48.796;11.978;2024-01-06T08:02:17;3.10;;;2.70;;
25349;SDS011;13302;48.796;11.978;2024-01-06T08:05:05;2.60;;;2.50;;
25349;SDS011;13302;48.796;11.978;2024-01-06T08:07:53;3.17;;;2.10;;
25349;SDS011;13302;48.796;11.978;2024-01-06T08:10:40;3.20;;;2.90;;
25349;SDS011;13302;48.796;11.978;2024-01-06T08:13:27;3.13;;;2.83;;
25349;SDS011;13302;48.796;11.978;2024-01-06T08:16:14;4.03;;;3.27;;
25349;SDS011;13302;48.796;11.978;2024-01-06T08:19:02;4.97;;;3.57;;
25349;SDS011;13302;48.796;11.978;2024-01-06T08:21:49;3.47;;;3.17;;
25349;SDS011;13302;48.796;11.978;2024-01-06T08:24:36;3.03;;;2.70;;
25349;SDS011;13302;48.796;11.978;2024-01-06T08:27:23;2.50;;;2.30;;
25349;SDS011;13302;48.796;11.978;2024-01-06T08:30:11;2.20;;;2.10;;
25349;SDS011;13302;48.796;11.978;2024-01-06T08:32:59;2.57;;;2.10;;
25349;SDS011;13302;48.796;11.978;2024-01-06T08:35:46;1.93;;;1.70;;
25349;SDS011;13302;48.796;11.978;2024-01-06T08:38:33;2.90;;;2.23;;
25349;SDS011;13302;48.796;11.978;2024-01-06T08:41:20;2.27;;;2.07;;
25349;SDS011;13302;48.796;11.978;2024-01-06T08:44:07;2.53;;;2.03;;
25349;SDS011;13302;48.796;11.978;2024-01-06T08:46:54;3.57;;;2.10;;
25349;SDS011;13302;48.796;11.978;2024-01-06T08:49:42;2.27;;;2.00;;
25349;SDS011;13302;48.796;11.978;2024-01-06T08:52:29;2.50;;;2.20;;
25349;SDS011;13302;48.796;11.978;2024-01-06T08:55:16;2.13;;;2.00;;
25349;SDS011;13302;48.796;11.978;2024-01-06T08:58:03;2.57;;;2.33;;
25349;SDS011;13302;48.796;11.978;2024-01-06T09:00:51;3.33;;;2.30;;
25349;SDS011;13302;48.796;11.978;2024-01-06T09:03:40;2.53;;;2.33;;
25349;SDS011;13302;48.796;11.978;2024-01-06T09:06:27;2.50;;;2.30;;
25349;SDS011;13302;48.796;11.978;2024-01-06T09:09:14;2.83;;;2.63;;
25349;SDS011;13302;48.796;11.978;2024-01-06T09:12:01;3.87;;;2.73;;
25349;SDS011;13302;48.796;11.978;2024-01-06T09:14:49;2.40;;;2.20;;
25349;SDS011;13302;48.796;11.978;2024-01-06T09:17:36;2.53;;;2.33;;
25349;SDS011;13302;48.796;11.978;2024-01-06T09:20:23;2.80;;;2.60;;
25349;SDS011;13302;48.796;11.978;2024-01-06T09:23:10;2.67;;;2.47;;
25349;SDS011;13302;48.796;11.978;2024-01-06T09:25:57;4.10;;;2.57;;
25349;SDS011;13302;48.796;11.978;2024-01-06T09:28:44;2.70;;;2.50;;
25349;SDS011;13302;48.796;11.978;2024-01-06T09:31:31;2.80;;;2.60;;
25349;SDS011;13302;48.796;11.978;2024-01-06T09:34:19;2.90;;;2.70;;
25349;SDS011;13302;48.796;11.978;2024-01-06T09:37:07;3.20;;;2.90;;
25349;SDS011;13302;48.796;11.978;2024-01-06T09:39:54;3.20;;;3.00;;
25349;SDS011;13302;48.796;11.978;2024-01-06T09:42:41;3.80;;;3.00;;
25349;SDS011;13302;48.796;11.978;2024-01-06T09:45:28;3.10;;;2.77;;
25349;SDS011;13302;48.796;11.978;2024-01-06T09:48:16;3.17;;;2.90;;
25349;SDS011;13302;48.796;11.978;2024-01-06T09:51:04;5.27;;;4.13;;
25349;SDS011;13302;48.796;11.978;2024-01-06T09:54:00;9.83;;;7.23;;
25349;SDS011;13302;48.796;11.978;2024-01-06T09:56:50;4.83;;;3.33;;
25349;SDS011;13302;48.796;11.978;2024-01-06T09:59:37;3.23;;;2.97;;
25349;SDS011;13302;48.796;11.978;2024-01-06T10:02:24;2.73;;;2.53;;
25349;SDS011;13302;48.796;11.978;2024-01-06T10:05:12;2.90;;;2.70;;
25349;SDS011;13302;48.796;11.978;2024-01-06T10:08:00;4.73;;;3.63;;
25349;SDS011;13302;48.796;11.978;2024-01-06T10:10:47;3.60;;;3.30;;
25349;SDS011;13302;48.796;11.978;2024-01-06T10:13:34;3.37;;;3.17;;
25349;SDS011;13302;48.796;11.978;2024-01-06T10:16:21;3.60;;;3.30;;
25349;SDS011;13302;48.796;11.978;2024-01-06T10:19:09;3.83;;;3.30;;
25349;SDS011;13302;48.796;11.978;2024-01-06T10:21:56;3.53;;;3.13;;
25349;SDS011;13302;48.796;11.978;2024-01-06T10:24:47;4.50;;;3.00;;
25349;SDS011;13302;48.796;11.978;2024-01-06T10:27:37;2.90;;;2.70;;
25349;SDS011;13302;48.796;11.978;2024-01-06T10:30:25;3.20;;;2.90;;
25349;SDS011;13302;48.796;11.978;2024-01-06T10:33:12;3.97;;;2.93;;
25349;SDS011;13302;48.796;11.978;2024-01-06T10:36:00;3.30;;;3.00;;
25349;SDS011;13302;48.796;11.978;2024-01-06T10:38:49;3.63;;;2.73;;
25349;SDS011;13302;48.796;11.978;2024-01-06T10:41:36;3.03;;;2.83;;
25349;SDS011;13302;48.796;11.978;2024-01-06T10:44:27;5.03;;;3.60;;
25349;SDS011;13302;48.796;11.978;2024-01-06T10:47:17;3.37;;;3.07;;
25349;SDS011;13302;48.796;11.978;2024-01-06T10:50:06;3.93;;;3.10;;
25349;SDS011;13302;48.796;11.978;2024-01-06T10:52:54;6.17;;;3.27;;
25349;SDS011;13302;48.796;11.978;2024-01-06T10:55:43;3.47;;;3.13;;
25349;SDS011;13302;48.796;11.978;2024-01-06T10:58:32;3.00;;;2.80;;
25349;SDS011;13302;48.796;11.978;2024-01-06T11:01:21;3.90;;;2.93;;
25349;SDS011;13302;48.796;11.978;2024-01-06T11:04:15;3.37;;;3.07;;
25349;SDS011;13302;48.796;11.978;2024-01-06T11:07:04;3.10;;;2.83;;
25349;SDS011;13302;48.796;11.978;2024-01-06T11:09:55;2.90;;;2.70;;
25349;SDS011;13302;48.796;11.978;2024-01-06T11:13:09;2.90;;;2.70;;
25349;SDS011;13302;48.796;11.978;2024-01-06T11:16:01;3.33;;;2.90;;
25349;SDS011;13302;48.796;11.978;2024-01-06T11:18:51;3.90;;;2.50;;
25349;SDS011;13302;48.796;11.978;2024-01-06T11:21:39;2.67;;;2.47;;
25349;SDS011;13302;48.796;11.978;2024-01-06T11:24:26;3.73;;;2.50;;
25349;SDS011;13302;48.796;11.978;2024-01-06T11:27:23;3.43;;;2.73;;
25349;SDS011;13302;48.796;11.978;2024-01-06T11:30:26;2.80;;;2.53;;
25349;SDS011;13302;48.796;11.978;2024-01-06T11:33:16;2.33;;;2.20;;
25349;SDS011;13302;48.796;11.978;2024-01-06T11:36:07;2.20;;;2.10;;
25349;SDS011;13302;48.796;11.978;2024-01-06T11:38:56;3.00;;;2.63;;
25349;SDS011;13302;48.796;11.978;2024-01-06T11:41:49;3.27;;;2.63;;
25349;SDS011;13302;48.796;11.978;2024-01-06T11:44:38;4.43;;;2.80;;
25349;SDS011;13302;48.796;11.978;2024-01-06T11:47:26;3.47;;;2.80;;
25349;SDS011;13302;48.796;11.978;2024-01-06T11:50:15;4.37;;;2.70;;
25349;SDS011;13302;48.796;11.978;2024-01-06T11:53:02;3.13;;;2.67;;
25349;SDS011;13302;48.796;11.978;2024-01-06T11:55:50;3.87;;;2.77;;
25349;SDS011;13302;48.796;11.978;2024-01-06T11:58:41;2.80;;;2.20;;
25349;SDS011;13302;48.796;11.978;2024-01-06T12:01:35;3.30;;;2.73;;
25349;SDS011;13302;48.796;11.978;2024-01-06T12:04:26;3.40;;;2.70;;
25349;SDS011;13302;48.796;11.978;2024-01-06T12:07:15;2.30;;;2.10;;
25349;SDS011;13302;48.796;11.978;2024-01-06T12:10:02;4.97;;;2.60;;
25349;SDS011;13302;48.796;11.978;2024-01-06T12:15:45;2.10;;;2.00;;
25349;SDS011;13302;48.796;11.978;2024-01-06T12:18:32;2.60;;;2.40;;
25349;SDS011;13302;48.796;11.978;2024-01-06T12:21:21;6.07;;;4.60;;
25349;SDS011;13302;48.796;11.978;2024-01-06T12:24:16;4.80;;;4.40;;
25349;SDS011;13302;48.796;11.978;2024-01-06T12:27:08;4.40;;;3.73;;
25349;SDS011;13302;48.796;11.978;2024-01-06T12:29:58;4.83;;;4.33;;
25349;SDS011;13302;48.796;11.978;2024-01-06T12:32:46;4.53;;;3.63;;
25349;SDS011;13302;48.796;11.978;2024-01-06T12:35:36;3.73;;;3.43;;
25349;SDS011;13302;48.796;11.978;2024-01-06T12:38:23;3.80;;;3.30;;
25349;SDS011;13302;48.796;11.978;2024-01-06T12:41:10;3.87;;;3.57;;
25349;SDS011;13302;48.796;11.978;2024-01-06T12:43:57;4.40;;;3.93;;
25349;SDS011;13302;48.796;11.978;2024-01-06T12:46:44;4.73;;;4.10;;
25349;SDS011;13302;48.796;11.978;2024-01-06T12:49:31;4.77;;;4.27;;
25349;SDS011;13302;48.796;11.978;2024-01-06T12:52:22;4.00;;;3.60;;
25349;SDS011;13302;48.796;11.978;2024-01-06T12:55:09;5.40;;;4.70;;
25349;SDS011;13302;48.796;11.978;2024-01-06T12:57:56;4.50;;;4.10;;
25349;SDS011;13302;48.796;11.978;2024-01-06T13:00:43;8.33;;;5.97;;
25349;SDS011;13302;48.796;11.978;2024-01-06T13:03:30;6.23;;;5.23;;
25349;SDS011;13302;48.796;11.978;2024-01-06T13:06:18;7.43;;;5.63;;
25349;SDS011;13302;48.796;11.978;2024-01-06T13:09:05;9.03;;;5.73;;
25349;SDS011;13302;48.796;11.978;2024-01-06T13:11:53;10.33;;;7.33;;
25349;SDS011;13302;48.796;11.978;2024-01-06T13:14:42;7.77;;;6.87;;
25349;SDS011;13302;48.796;11.978;2024-01-06T13:17:31;11.77;;;8.23;;
25349;SDS011;13302;48.796;11.978;2024-01-06T13:20:18;14.77;;;8.77;;
25349;SDS011;13302;48.796;11.978;2024-01-06T13:23:05;12.03;;;8.83;;
25349;SDS011;13302;48.796;11.978;2024-01-06T13:25:53;9.00;;;7.20;;
25349;SDS011;13302;48.796;11.978;2024-01-06T13:28:40;23.93;;;18.60;;
25349;SDS011;13302;48.796;11.978;2024-01-06T13:31:27;26.17;;;19.67;;
25349;SDS011;13302;48.796;11.978;2024-01-06T13:34:16;82.53;;;55.67;;
25349;SDS011;13302;48.796;11.978;2024-01-06T13:37:03;95.97;;;61.13;;
25349;SDS011;13302;48.796;11.978;2024-01-06T13:39:50;60.37;;;40.80;;
25349;SDS011;13302;48.796;11.978;2024-01-06T13:42:38;36.40;;;23.67;;
25349;SDS011;13302;48.796;11.978;2024-01-06T13:45:25;41.20;;;24.13;;
25349;SDS011;13302;48.796;11.978;2024-01-06T13:48:13;20.03;;;13.00;;
25349;SDS011;13302;48.796;11.978;2024-01-06T13:51:01;19.97;;;14.03;;
25349;SDS011;13302;48.796;11.978;2024-01-06T13:53:49;19.23;;;12.87;;
25349;SDS011;13302;48.796;11.978;2024-01-06T13:56:37;10.93;;;8.10;;
25349;SDS011;13302;48.796;11.978;2024-01-06T13:59:24;18.00;;;12.47;;
25349;SDS011;13302;48.796;11.978;2024-01-06T14:02:11;15.73;;;11.23;;
25349;SDS011;13302;48.796;11.978;2024-01-06T14:04:58;12.67;;;9.07;;
25349;SDS011;13302;48.796;11.978;2024-01-06T14:07:45;20.20;;;13.83;;
25349;SDS011;13302;48.796;11.978;2024-01-06T14:10:35;24.87;;;16.47;;
25349;SDS011;13302;48.796;11.978;2024-01-06T14:13:24;24.53;;;14.80;;
25349;SDS011;13302;48.796;11.978;2024-01-06T14:16:11;16.83;;;11.73;;
25349;SDS011;13302;48.796;11.978;2024-01-06T14:18:58;21.87;;;14.70;;
25349;SDS011;13302;48.796;11.978;2024-01-06T14:21:46;17.00;;;11.40;;
25349;SDS011;13302;48.796;11.978;2024-01-06T14:24:34;15.83;;;11.50;;
25349;SDS011;13302;48.796;11.978;2024-01-06T14:27:23;13.93;;;10.30;;
25349;SDS011;13302;48.796;11.978;2024-01-06T14:30:10;11.77;;;8.83;;
25349;SDS011;13302;48.796;11.978;2024-01-06T14:32:57;17.90;;;11.30;;
25349;SDS011;13302;48.796;11.978;2024-01-06T14:35:45;9.93;;;7.23;;
25349;SDS011;13302;48.796;11.978;2024-01-06T14:38:32;14.87;;;10.40;;
25349;SDS011;13302;48.796;11.978;2024-01-06T14:41:19;10.83;;;8.07;;
25349;SDS011;13302;48.796;11.978;2024-01-06T14:44:06;7.60;;;6.10;;
25349;SDS011;13302;48.796;11.978;2024-01-06T14:46:54;7.43;;;6.30;;
25349;SDS011;13302;48.796;11.978;2024-01-06T14:49:41;7.37;;;6.67;;
25349;SDS011;13302;48.796;11.978;2024-01-06T14:52:28;8.53;;;6.50;;
25349;SDS011;13302;48.796;11.978;2024-01-06T14:55:15;6.57;;;5.97;;
25349;SDS011;13302;48.796;11.978;2024-01-06T14:58:02;6.67;;;6.07;;
25349;SDS011;13302;48.796;11.978;2024-01-06T15:00:49;6.50;;;5.33;;
25349;SDS011;13302;48.796;11.978;2024-01-06T15:03:37;5.63;;;4.77;;
25349;SDS011;13302;48.796;11.978;2024-01-06T15:06:24;5.27;;;3.60;;
25349;SDS011;13302;48.796;11.978;2024-01-06T15:09:11;3.87;;;3.10;;
25349;SDS011;13302;48.796;11.978;2024-01-06T15:11:58;5.43;;;4.90;;
25349;SDS011;13302;48.796;11.978;2024-01-06T15:14:45;5.80;;;4.30;;
25349;SDS011;13302;48.796;11.978;2024-01-06T15:17:32;4.97;;;4.47;;
25349;SDS011;13302;48.796;11.978;2024-01-06T15:20:19;8.70;;;6.10;;
25349;SDS011;13302;48.796;11.978;2024-01-06T15:23:07;13.27;;;8.93;;
25349;SDS011;13302;48.796;11.978;2024-01-06T15:25:55;29.93;;;21.40;;
25349;SDS011;13302;48.796;11.978;2024-01-06T15:28:42;16.87;;;13.33;;
25349;SDS011;13302;48.796;11.978;2024-01-06T15:31:29;20.63;;;17.77;;
25349;SDS011;13302;48.796;11.978;2024-01-06T15:34:17;21.77;;;18.20;;
25349;SDS011;13302;48.796;11.978;2024-01-06T15:37:04;29.97;;;24.87;;
25349;SDS011;13302;48.796;11.978;2024-01-06T15:39:52;14.30;;;12.80;;
25349;SDS011;13302;48.796;11.978;2024-01-06T15:42:40;10.37;;;8.37;;
25349;SDS011;13302;48.796;11.978;2024-01-06T15:45:27;6.83;;;6.20;;
25349;SDS011;13302;48.796;11.978;2024-01-06T15:48:14;5.93;;;5.33;;
25349;SDS011;13302;48.796;11.978;2024-01-06T15:51:02;4.47;;;4.17;;
25349;SDS011;13302;48.796;11.978;2024-01-06T15:53:49;4.20;;;3.80;;
25349;SDS011;13302;48.796;11.978;2024-01-06T15:56:36;4.63;;;4.20;;
25349;SDS011;13302;48.796;11.978;2024-01-06T15:59:23;4.20;;;3.40;;
25349;SDS011;13302;48.796;11.978;2024-01-06T16:02:11;3.40;;;3.13;;
25349;SDS011;13302;48.796;11.978;2024-01-06T16:04:58;4.10;;;3.73;;
25349;SDS011;13302;48.796;11.978;2024-01-06T16:07:45;3.47;;;3.20;;
25349;SDS011;13302;48.796;11.978;2024-01-06T16:10:32;4.00;;;3.30;;
25349;SDS011;13302;48.796;11.978;2024-01-06T16:13:19;3.90;;;3.50;;
25349;SDS011;13302;48.796;11.978;2024-01-06T16:16:06;4.33;;;3.70;;
25349;SDS011;13302;48.796;11.978;2024-01-06T16:18:54;3.80;;;3.50;;
25349;SDS011;13302;48.796;11.978;2024-01-06T16:21:41;3.57;;;3.23;;
25349;SDS011;13302;48.796;11.978;2024-01-06T16:24:28;4.00;;;3.70;;
25349;SDS011;13302;48.796;11.978;2024-01-06T16:27:16;3.23;;;3.03;;
25349;SDS011;13302;48.796;11.978;2024-01-06T16:30:04;3.43;;;3.13;;
25349;SDS011;13302;48.796;11.978;2024-01-06T16:32:52;4.20;;;3.80;;
25349;SDS011;13302;48.796;11.978;2024-01-06T16:35:39;6.77;;;6.03;;